Terminal Aerodrome Forecast
Issued by NWS

Home | Current Version | Previous Version | Text Only | Print | Product List | Glossary On
Versions: 1 2 3 4 5 6 7 8 9 10 11 12 13 14
000
FTUS43 KGRB 291136
TAFCWA
TAF
KCWA 291136Z 2912/3012 27010KT P6SM SCT025 OVC040
      TEMPO 2912/2915 BKN025
     FM291500 27015G25KT P6SM VCSH BKN020 OVC035
      TEMPO 2920/2924 -SHRA
     FM300200 28010KT P6SM BKN015 OVC035=

USA.gov is the U.S. government's official web portal to all federal, state and local government web resources and services.